createdAt,value
2023-05-19T00:03:33.968Z,10.12
2023-05-19T00:07:39.458Z,10.13
2023-05-19T00:11:43.059Z,10.12
2023-05-19T00:15:46.833Z,10.13
2023-05-19T00:19:52.510Z,10.12
2023-05-19T00:23:56.148Z,10.10
2023-05-19T00:27:59.856Z,10.08
2023-05-19T00:32:02.841Z,10.04
2023-05-19T00:36:08.382Z,10.03
2023-05-19T00:40:11.857Z,10.04
2023-05-19T00:44:14.912Z,10.03
2023-05-19T00:48:18.044Z,10.01
2023-05-19T00:52:22.620Z,10.01
2023-05-19T00:56:26.490Z,9.98
2023-05-19T01:00:30.244Z,9.94
2023-05-19T01:04:34.898Z,9.92
2023-05-19T01:08:39.978Z,9.90
2023-05-19T01:12:42.969Z,9.91
2023-05-19T01:16:50.820Z,9.89
2023-05-19T01:21:06.499Z,9.86
2023-05-19T01:25:50.842Z,9.82
2023-05-19T01:30:23.335Z,9.81
2023-05-19T01:34:28.073Z,9.79
2023-05-19T01:38:31.672Z,9.80
2023-05-19T01:42:37.905Z,9.78
2023-05-19T01:46:43.255Z,9.77
2023-05-19T01:50:46.858Z,9.76
2023-05-19T01:54:49.873Z,9.77
2023-05-19T01:59:03.820Z,9.75
2023-05-19T02:03:21.106Z,9.74
2023-05-19T02:07:32.531Z,9.73
2023-05-19T02:11:41.329Z,9.70
2023-05-19T02:15:46.457Z,9.69
2023-05-19T02:19:52.235Z,9.67
2023-05-19T02:23:55.417Z,9.66
2023-05-19T02:27:59.495Z,9.67
2023-05-19T02:32:07.280Z,9.63
2023-05-19T02:36:11.712Z,9.61
2023-05-19T02:40:14.738Z,9.60
2023-05-19T02:44:17.722Z,9.60
2023-05-19T02:48:20.781Z,9.56
2023-05-19T02:52:25.164Z,9.51
2023-05-19T02:56:28.807Z,9.47
2023-05-19T03:00:32.223Z,9.43
2023-05-19T03:04:42.224Z,9.43
2023-05-19T03:08:46.829Z,9.44
2023-05-19T03:12:49.894Z,9.44
2023-05-19T03:16:53.017Z,9.45
2023-05-19T03:20:56.574Z,9.43
2023-05-19T03:25:01.068Z,9.40
2023-05-19T03:29:04.354Z,9.40
2023-05-19T03:33:11.088Z,9.41
2023-05-19T03:37:15.344Z,9.42
2023-05-19T03:41:19.770Z,9.43
2023-05-19T03:45:23.225Z,9.48
2023-05-19T03:49:28.184Z,9.50
2023-05-19T03:53:41.237Z,9.50
2023-05-19T03:57:45.789Z,9.50
2023-05-19T04:01:48.976Z,9.49
2023-05-19T04:05:52.025Z,9.49
2023-05-19T04:09:55.056Z,9.48
2023-05-19T04:13:59.517Z,9.51
2023-05-19T04:18:02.841Z,9.53
2023-05-19T04:22:06.251Z,9.54
2023-05-19T04:26:09.342Z,9.58
2023-05-19T04:30:18.533Z,9.61
2023-05-19T04:34:22.029Z,9.64
2023-05-19T04:38:25.777Z,9.68
2023-05-19T04:42:30.847Z,9.73
2023-05-19T04:46:37.485Z,9.77
2023-05-19T04:50:42.135Z,9.80
2023-05-19T04:54:45.741Z,9.84
2023-05-19T04:58:49.948Z,9.87
2023-05-19T05:02:57.645Z,9.88
2023-05-19T05:07:03.053Z,9.87
2023-05-19T05:11:06.908Z,9.93
2023-05-19T05:15:12.134Z,9.96
2023-05-19T05:19:17.592Z,9.99
2023-05-19T05:23:21.452Z,10.13
2023-05-19T05:27:26.192Z,10.20
2023-05-19T05:31:29.880Z,10.31
2023-05-19T05:35:34.731Z,10.38
2023-05-19T05:39:38.050Z,10.58
2023-05-19T05:43:41.299Z,10.79
2023-05-19T05:47:45.362Z,11.03
2023-05-19T05:52:04.848Z,11.19
2023-05-19T05:56:13.591Z,11.23
2023-05-19T06:00:27.986Z,11.26
2023-05-19T06:04:31.216Z,11.41
2023-05-19T06:08:35.845Z,11.48
2023-05-19T06:12:40.780Z,11.63
2023-05-19T06:16:44.243Z,11.73
2023-05-19T06:20:47.827Z,11.86
2023-05-19T06:24:52.226Z,12.03
2023-05-19T06:28:55.976Z,12.20
2023-05-19T06:32:59.447Z,12.34
2023-05-19T06:37:03.680Z,12.34
2023-05-19T06:41:09.404Z,12.36
2023-05-19T06:45:13.078Z,12.43
2023-05-19T06:49:16.263Z,12.51
2023-05-19T06:53:22.027Z,12.56
2023-05-19T06:57:27.271Z,12.44
2023-05-19T07:01:31.042Z,12.43
2023-05-19T07:05:35.488Z,12.45
2023-05-19T07:09:39.033Z,12.56
2023-05-19T07:13:43.587Z,12.63
2023-05-19T07:17:47.789Z,12.71
2023-05-19T07:21:51.258Z,12.75
2023-05-19T07:25:56.141Z,12.76
2023-05-19T07:30:00.851Z,12.81
2023-05-19T07:34:04.265Z,12.96
2023-05-19T07:38:07.536Z,12.96
2023-05-19T07:42:10.609Z,12.90
2023-05-19T07:46:15.088Z,12.91
2023-05-19T07:50:18.215Z,13.01
2023-05-19T07:54:21.578Z,13.17
2023-05-19T07:58:24.794Z,13.33
2023-05-19T08:02:29.232Z,13.44
2023-05-19T08:06:32.444Z,13.50
2023-05-19T08:10:35.623Z,13.60
2023-05-19T08:14:38.790Z,13.70
2023-05-19T08:18:43.436Z,13.79
2023-05-19T08:22:46.538Z,13.86
2023-05-19T08:26:49.515Z,13.93
2023-05-19T08:30:53.473Z,13.94
2023-05-19T08:34:57.986Z,13.99
2023-05-19T08:39:01.076Z,14.02
2023-05-19T08:43:04.342Z,14.09
2023-05-19T08:47:12.683Z,14.00
2023-05-19T08:51:25.565Z,14.07
2023-05-19T08:55:35.441Z,14.11
2023-05-19T08:59:39.000Z,14.16
2023-05-19T09:03:43.196Z,14.21
2023-05-19T09:07:49.338Z,14.21
2023-05-19T09:11:52.549Z,14.33
2023-05-19T09:15:57.557Z,14.46
2023-05-19T09:20:03.003Z,14.63
2023-05-19T09:24:08.619Z,14.74
2023-05-19T09:28:11.836Z,14.87
2023-05-19T09:32:26.130Z,14.96
2023-05-19T09:36:31.003Z,15.07
2023-05-19T09:40:35.541Z,15.13
2023-05-19T09:44:38.752Z,15.21
2023-05-19T09:48:42.564Z,15.31
2023-05-19T09:52:45.955Z,15.56
2023-05-19T09:56:58.694Z,15.73
2023-05-19T10:01:02.790Z,15.95
2023-05-19T10:05:07.174Z,16.15
2023-05-19T10:09:10.332Z,16.38
2023-05-19T10:13:15.306Z,16.57
2023-05-19T10:17:18.476Z,16.72
2023-05-19T10:21:21.459Z,16.67
2023-05-19T10:25:24.554Z,16.63
2023-05-19T10:29:31.763Z,16.63
2023-05-19T10:33:53.168Z,16.71
2023-05-19T10:38:02.730Z,16.89
2023-05-19T10:42:14.999Z,16.99
2023-05-19T10:46:19.561Z,16.99
2023-05-19T10:50:23.606Z,16.95
2023-05-19T10:54:43.293Z,16.83
2023-05-19T10:58:53.239Z,16.75
2023-05-19T11:03:13.917Z,16.83
2023-05-19T11:07:19.410Z,17.05
2023-05-19T11:11:23.356Z,17.31
2023-05-19T11:15:28.239Z,17.52
2023-05-19T11:19:33.785Z,17.73
2023-05-19T11:23:40.183Z,17.60
2023-05-19T11:27:43.494Z,17.63
2023-05-19T11:31:46.647Z,17.56
2023-05-19T11:35:52.033Z,17.59
2023-05-19T11:39:55.358Z,17.76
2023-05-19T11:43:58.775Z,18.00
2023-05-19T11:48:03.425Z,18.09
2023-05-19T11:52:08.239Z,18.07
2023-05-19T11:56:13.185Z,18.07
2023-05-19T12:00:16.651Z,18.09
2023-05-19T12:04:20.639Z,18.03
2023-05-19T12:08:27.194Z,17.95
2023-05-19T12:12:31.253Z,17.93
2023-05-19T12:16:35.397Z,17.93
2023-05-19T12:20:39.248Z,17.96
2023-05-19T12:24:44.573Z,17.96
2023-05-19T12:28:47.822Z,17.93
2023-05-19T12:32:52.017Z,17.93
2023-05-19T12:36:55.227Z,17.94
2023-05-19T12:41:01.355Z,18.00
2023-05-19T12:45:05.649Z,18.01
2023-05-19T12:49:08.649Z,18.07
2023-05-19T12:53:13.090Z,18.09
2023-05-19T12:57:18.998Z,18.13
2023-05-19T13:01:24.458Z,18.09
2023-05-19T13:05:28.451Z,18.15
2023-05-19T13:09:35.037Z,18.17
2023-05-19T13:13:39.480Z,18.18
2023-05-19T13:17:42.895Z,18.18
2023-05-19T13:21:47.446Z,18.24
2023-05-19T13:25:51.600Z,18.27
2023-05-19T13:29:56.082Z,18.26
2023-05-19T13:33:59.163Z,18.38
2023-05-19T13:38:04.320Z,18.44
2023-05-19T13:42:08.094Z,18.48
2023-05-19T13:46:12.633Z,18.49
2023-05-19T13:50:15.860Z,18.49
2023-05-19T13:54:19.218Z,18.41
2023-05-19T13:58:22.462Z,18.38
2023-05-19T14:02:26.944Z,18.37
2023-05-19T14:06:30.377Z,18.43
2023-05-19T14:10:33.771Z,18.46
2023-05-19T14:14:37.038Z,18.51
2023-05-19T14:18:41.448Z,18.49
2023-05-19T14:22:44.548Z,18.44
2023-05-19T14:26:47.521Z,18.40
2023-05-19T14:30:51.171Z,18.37
2023-05-19T14:34:55.657Z,18.35
2023-05-19T14:38:58.710Z,18.36
2023-05-19T14:43:02.034Z,18.29
2023-05-19T14:47:07.488Z,18.29
2023-05-19T14:51:12.070Z,18.29
2023-05-19T14:55:15.132Z,18.35
2023-05-19T14:59:18.118Z,18.41
2023-05-19T15:03:23.249Z,18.42
2023-05-19T15:07:28.165Z,18.45
2023-05-19T15:11:31.259Z,18.44
2023-05-19T15:15:34.253Z,18.36
2023-05-19T15:19:37.631Z,18.28
2023-05-19T15:23:42.505Z,18.30
2023-05-19T15:27:45.882Z,18.29
2023-05-19T15:31:51.289Z,18.34
2023-05-19T15:35:54.406Z,18.35
2023-05-19T15:39:58.815Z,18.29
2023-05-19T15:44:02.616Z,18.22
2023-05-19T15:48:06.132Z,18.19
2023-05-19T15:52:09.266Z,18.15
2023-05-19T15:56:14.458Z,18.15
2023-05-19T16:00:17.601Z,18.12
2023-05-19T16:04:20.970Z,18.13
2023-05-19T16:08:24.357Z,18.14
2023-05-19T16:12:29.537Z,18.16
2023-05-19T16:16:32.735Z,18.18
2023-05-19T16:20:35.847Z,18.13
2023-05-19T16:24:38.922Z,18.16
2023-05-19T16:28:43.626Z,18.14
2023-05-19T16:32:46.705Z,18.11
2023-05-19T16:36:49.753Z,18.07
2023-05-19T16:40:52.831Z,18.02
2023-05-19T16:44:57.337Z,17.91
2023-05-19T16:49:00.383Z,17.82
2023-05-19T16:53:03.391Z,17.75
2023-05-19T16:57:07.010Z,17.66
2023-05-19T17:01:12.027Z,17.61
2023-05-19T17:05:15.245Z,17.59
2023-05-19T17:09:24.907Z,17.55
2023-05-19T17:13:29.045Z,17.54
2023-05-19T17:17:33.544Z,17.53
2023-05-19T17:21:36.673Z,17.50
2023-05-19T17:25:39.678Z,17.50
2023-05-19T17:29:42.801Z,17.49
2023-05-19T17:33:47.305Z,17.45
2023-05-19T17:37:51.904Z,17.42
2023-05-19T17:41:54.931Z,17.41
2023-05-19T17:45:59.574Z,17.36
2023-05-19T17:50:06.105Z,17.32
2023-05-19T17:54:09.806Z,17.30
2023-05-19T17:58:13.226Z,17.24
2023-05-19T18:02:17.249Z,17.15
2023-05-19T18:06:22.482Z,17.09
2023-05-19T18:10:28.522Z,17.04
2023-05-19T18:14:31.559Z,16.97
2023-05-19T18:18:37.322Z,16.91
2023-05-19T18:22:41.771Z,16.83
2023-05-19T18:26:44.912Z,16.75
2023-05-19T18:30:48.033Z,16.67
2023-05-19T18:34:51.105Z,16.61
2023-05-19T18:38:58.118Z,16.55
2023-05-19T18:43:01.358Z,16.49
2023-05-19T18:47:04.413Z,16.44
2023-05-19T18:51:07.807Z,16.39
2023-05-19T18:55:12.472Z,16.32
2023-05-19T18:59:15.601Z,16.26
2023-05-19T19:03:18.606Z,16.23
2023-05-19T19:07:21.701Z,16.19
2023-05-19T19:11:26.349Z,16.17
2023-05-19T19:15:29.463Z,16.14
2023-05-19T19:19:32.668Z,16.11
2023-05-19T19:23:35.921Z,16.05
2023-05-19T19:27:40.271Z,15.97
2023-05-19T19:31:43.702Z,15.91
2023-05-19T19:35:47.323Z,15.81
2023-05-19T19:39:50.499Z,15.73
2023-05-19T19:43:55.017Z,15.65
2023-05-19T19:47:58.211Z,15.62
2023-05-19T19:52:01.337Z,15.60
2023-05-19T19:56:05.263Z,15.59
2023-05-19T20:00:10.977Z,15.57
2023-05-19T20:04:14.230Z,15.55
2023-05-19T20:08:17.343Z,15.54
2023-05-19T20:12:20.586Z,15.54
2023-05-19T20:16:25.198Z,15.51
2023-05-19T20:20:28.293Z,15.47
2023-05-19T20:24:31.266Z,15.42
2023-05-19T20:28:35.140Z,15.37
2023-05-19T20:32:40.040Z,15.32
2023-05-19T20:36:43.321Z,15.27
2023-05-19T20:40:48.508Z,15.16
2023-05-19T20:44:52.126Z,15.05
2023-05-19T20:48:56.485Z,14.97
2023-05-19T20:52:59.579Z,14.91
2023-05-19T20:57:06.438Z,14.85
2023-05-19T21:01:09.625Z,14.81
2023-05-19T21:05:14.032Z,14.77
2023-05-19T21:09:17.074Z,14.72
2023-05-19T21:13:20.374Z,14.68
2023-05-19T21:17:23.461Z,14.64
2023-05-19T21:21:27.856Z,14.55
2023-05-19T21:25:31.359Z,14.51
2023-05-19T21:29:34.455Z,14.47
2023-05-19T21:33:37.558Z,14.41
2023-05-19T21:37:42.101Z,14.37
2023-05-19T21:41:45.171Z,14.32
2023-05-19T21:45:48.389Z,14.25
2023-05-19T21:49:51.552Z,14.19
2023-05-19T21:53:56.174Z,14.13
2023-05-19T21:58:00.979Z,14.06
2023-05-19T22:02:06.355Z,13.98
2023-05-19T22:06:09.739Z,13.89
2023-05-19T22:10:14.132Z,13.82
2023-05-19T22:14:17.357Z,13.78
2023-05-19T22:18:20.400Z,13.72
2023-05-19T22:22:23.512Z,13.69
2023-05-19T22:26:28.106Z,13.65
2023-05-19T22:30:31.249Z,13.61
2023-05-19T22:34:34.309Z,13.59
2023-05-19T22:38:37.548Z,13.53
2023-05-19T22:42:41.914Z,13.49
2023-05-19T22:46:45.314Z,13.44
2023-05-19T22:50:48.319Z,13.38
2023-05-19T22:54:51.411Z,13.34
2023-05-19T22:58:56.146Z,13.30
2023-05-19T23:02:59.339Z,13.27
2023-05-19T23:07:02.402Z,13.24
2023-05-19T23:11:05.515Z,13.25
2023-05-19T23:15:11.904Z,13.21
2023-05-19T23:19:15.236Z,13.17
2023-05-19T23:23:18.332Z,13.13
2023-05-19T23:27:21.457Z,13.09
2023-05-19T23:31:25.979Z,13.02
2023-05-19T23:35:29.517Z,12.96
2023-05-19T23:39:32.566Z,12.92
2023-05-19T23:43:35.838Z,12.90
2023-05-19T23:47:40.419Z,12.85
2023-05-19T23:51:43.497Z,12.85
2023-05-19T23:55:47.382Z,12.84
2023-05-19T23:59:50.482Z,12.81
